sensor_id;sensor_type;location;lat;lon;timestamp;P1;durP1;ratioP1;P2;durP2;ratioP2
45392;SDS011;31129;44.810;10.334;2023-07-31T00:02:17;9.45;;;5.00;;
45392;SDS011;31129;44.810;10.334;2023-07-31T00:04:42;11.55;;;4.97;;
45392;SDS011;31129;44.810;10.334;2023-07-31T00:07:08;5.78;;;4.72;;
45392;SDS011;31129;44.810;10.334;2023-07-31T00:09:34;7.65;;;4.78;;
45392;SDS011;31129;44.810;10.334;2023-07-31T00:11:59;12.20;;;5.22;;
45392;SDS011;31129;44.810;10.334;2023-07-31T00:14:25;10.02;;;5.50;;
45392;SDS011;31129;44.810;10.334;2023-07-31T00:16:50;7.95;;;4.57;;
45392;SDS011;31129;44.810;10.334;2023-07-31T00:19:16;5.75;;;4.82;;
45392;SDS011;31129;44.810;10.334;2023-07-31T00:21:41;9.18;;;4.40;;
45392;SDS011;31129;44.810;10.334;2023-07-31T00:24:07;13.65;;;5.30;;
45392;SDS011;31129;44.810;10.334;2023-07-31T00:26:32;11.15;;;5.72;;
45392;SDS011;31129;44.810;10.334;2023-07-31T00:28:58;6.05;;;5.35;;
45392;SDS011;31129;44.810;10.334;2023-07-31T00:31:23;8.48;;;6.60;;
45392;SDS011;31129;44.810;10.334;2023-07-31T00:33:49;11.70;;;7.07;;
45392;SDS011;31129;44.810;10.334;2023-07-31T00:36:14;16.10;;;6.30;;
45392;SDS011;31129;44.810;10.334;2023-07-31T00:38:41;9.77;;;6.47;;
45392;SDS011;31129;44.810;10.334;2023-07-31T00:41:07;10.95;;;5.88;;
45392;SDS011;31129;44.810;10.334;2023-07-31T00:43:32;9.80;;;6.13;;
45392;SDS011;31129;44.810;10.334;2023-07-31T00:45:58;11.15;;;6.88;;
45392;SDS011;31129;44.810;10.334;2023-07-31T00:48:24;6.65;;;5.78;;
45392;SDS011;31129;44.810;10.334;2023-07-31T00:50:49;7.78;;;5.18;;
45392;SDS011;31129;44.810;10.334;2023-07-31T00:53:18;10.30;;;5.03;;
45392;SDS011;31129;44.810;10.334;2023-07-31T00:55:44;6.47;;;4.43;;
45392;SDS011;31129;44.810;10.334;2023-07-31T00:58:10;9.02;;;5.07;;
45392;SDS011;31129;44.810;10.334;2023-07-31T01:00:37;13.02;;;6.25;;
45392;SDS011;31129;44.810;10.334;2023-07-31T01:03:03;8.77;;;6.53;;
45392;SDS011;31129;44.810;10.334;2023-07-31T01:10:56;9.57;;;6.70;;
45392;SDS011;31129;44.810;10.334;2023-07-31T01:13:30;7.53;;;6.38;;
45392;SDS011;31129;44.810;10.334;2023-07-31T01:15:55;10.07;;;7.20;;
45392;SDS011;31129;44.810;10.334;2023-07-31T01:18:21;12.57;;;7.47;;
45392;SDS011;31129;44.810;10.334;2023-07-31T01:20:47;9.88;;;5.72;;
45392;SDS011;31129;44.810;10.334;2023-07-31T01:23:35;8.95;;;5.75;;
45392;SDS011;31129;44.810;10.334;2023-07-31T01:31:26;12.68;;;4.97;;
45392;SDS011;31129;44.810;10.334;2023-07-31T01:33:54;7.97;;;4.40;;
45392;SDS011;31129;44.810;10.334;2023-07-31T01:36:22;8.65;;;4.40;;
45392;SDS011;31129;44.810;10.334;2023-07-31T01:38:48;8.55;;;4.38;;
45392;SDS011;31129;44.810;10.334;2023-07-31T01:41:18;6.82;;;4.10;;
45392;SDS011;31129;44.810;10.334;2023-07-31T01:43:44;8.75;;;3.88;;
45392;SDS011;31129;44.810;10.334;2023-07-31T01:46:11;7.70;;;3.65;;
45392;SDS011;31129;44.810;10.334;2023-07-31T01:48:36;7.15;;;3.72;;
45392;SDS011;31129;44.810;10.334;2023-07-31T01:51:02;9.68;;;3.78;;
45392;SDS011;31129;44.810;10.334;2023-07-31T01:53:28;4.95;;;3.50;;
45392;SDS011;31129;44.810;10.334;2023-07-31T01:55:55;9.75;;;4.22;;
45392;SDS011;31129;44.810;10.334;2023-07-31T01:58:20;6.38;;;3.80;;
45392;SDS011;31129;44.810;10.334;2023-07-31T02:00:46;8.30;;;3.85;;
45392;SDS011;31129;44.810;10.334;2023-07-31T02:03:12;5.30;;;3.30;;
45392;SDS011;31129;44.810;10.334;2023-07-31T02:05:43;6.13;;;3.80;;
45392;SDS011;31129;44.810;10.334;2023-07-31T02:08:11;8.70;;;4.35;;
45392;SDS011;31129;44.810;10.334;2023-07-31T02:10:37;7.03;;;4.18;;
45392;SDS011;31129;44.810;10.334;2023-07-31T02:13:02;7.88;;;4.18;;
45392;SDS011;31129;44.810;10.334;2023-07-31T02:15:32;9.85;;;4.30;;
45392;SDS011;31129;44.810;10.334;2023-07-31T02:17:57;6.60;;;4.38;;
45392;SDS011;31129;44.810;10.334;2023-07-31T02:20:24;10.32;;;5.10;;
45392;SDS011;31129;44.810;10.334;2023-07-31T02:22:50;6.30;;;4.45;;
45392;SDS011;31129;44.810;10.334;2023-07-31T02:25:16;10.23;;;4.65;;
45392;SDS011;31129;44.810;10.334;2023-07-31T02:27:42;7.40;;;4.10;;
45392;SDS011;31129;44.810;10.334;2023-07-31T02:30:07;9.30;;;5.40;;
45392;SDS011;31129;44.810;10.334;2023-07-31T02:32:33;6.18;;;5.00;;
45392;SDS011;31129;44.810;10.334;2023-07-31T02:34:59;7.78;;;5.05;;
45392;SDS011;31129;44.810;10.334;2023-07-31T02:37:25;9.02;;;4.95;;
45392;SDS011;31129;44.810;10.334;2023-07-31T02:39:51;6.60;;;5.22;;
45392;SDS011;31129;44.810;10.334;2023-07-31T02:42:16;8.25;;;5.13;;
45392;SDS011;31129;44.810;10.334;2023-07-31T02:44:42;7.03;;;4.70;;
45392;SDS011;31129;44.810;10.334;2023-07-31T02:47:07;7.80;;;4.90;;
45392;SDS011;31129;44.810;10.334;2023-07-31T02:49:33;7.00;;;4.82;;
45392;SDS011;31129;44.810;10.334;2023-07-31T02:51:58;8.13;;;5.65;;
45392;SDS011;31129;44.810;10.334;2023-07-31T02:54:24;7.50;;;5.47;;
45392;SDS011;31129;44.810;10.334;2023-07-31T02:56:49;8.23;;;5.32;;
45392;SDS011;31129;44.810;10.334;2023-07-31T02:59:15;12.05;;;5.90;;
45392;SDS011;31129;44.810;10.334;2023-07-31T03:01:41;8.27;;;5.72;;
45392;SDS011;31129;44.810;10.334;2023-07-31T03:04:07;10.85;;;5.75;;
45392;SDS011;31129;44.810;10.334;2023-07-31T03:06:32;7.97;;;6.22;;
45392;SDS011;31129;44.810;10.334;2023-07-31T03:08:58;7.45;;;5.32;;
45392;SDS011;31129;44.810;10.334;2023-07-31T03:11:24;8.18;;;5.60;;
45392;SDS011;31129;44.810;10.334;2023-07-31T03:13:49;7.10;;;5.55;;
45392;SDS011;31129;44.810;10.334;2023-07-31T03:16:15;10.13;;;6.60;;
45392;SDS011;31129;44.810;10.334;2023-07-31T03:18:40;7.15;;;5.57;;
45392;SDS011;31129;44.810;10.334;2023-07-31T03:21:06;10.65;;;6.60;;
45392;SDS011;31129;44.810;10.334;2023-07-31T03:23:32;10.00;;;5.93;;
45392;SDS011;31129;44.810;10.334;2023-07-31T03:25:58;8.93;;;6.18;;
45392;SDS011;31129;44.810;10.334;2023-07-31T03:28:27;10.82;;;5.65;;
45392;SDS011;31129;44.810;10.334;2023-07-31T03:30:53;11.70;;;6.32;;
45392;SDS011;31129;44.810;10.334;2023-07-31T03:33:18;8.45;;;6.20;;
45392;SDS011;31129;44.810;10.334;2023-07-31T03:35:44;8.95;;;5.68;;
45392;SDS011;31129;44.810;10.334;2023-07-31T03:38:10;9.63;;;6.38;;
45392;SDS011;31129;44.810;10.334;2023-07-31T03:40:35;8.63;;;6.07;;
45392;SDS011;31129;44.810;10.334;2023-07-31T03:43:01;8.10;;;6.20;;
45392;SDS011;31129;44.810;10.334;2023-07-31T03:45:27;8.65;;;6.50;;
45392;SDS011;31129;44.810;10.334;2023-07-31T03:47:53;12.60;;;6.57;;
45392;SDS011;31129;44.810;10.334;2023-07-31T03:50:20;12.50;;;6.80;;
45392;SDS011;31129;44.810;10.334;2023-07-31T03:52:45;11.95;;;6.90;;
45392;SDS011;31129;44.810;10.334;2023-07-31T03:55:11;11.55;;;7.32;;
45392;SDS011;31129;44.810;10.334;2023-07-31T03:57:37;10.93;;;7.10;;
45392;SDS011;31129;44.810;10.334;2023-07-31T04:00:02;11.52;;;6.80;;
45392;SDS011;31129;44.810;10.334;2023-07-31T04:02:37;11.77;;;7.78;;
45392;SDS011;31129;44.810;10.334;2023-07-31T04:05:03;14.77;;;7.60;;
45392;SDS011;31129;44.810;10.334;2023-07-31T04:07:28;10.55;;;6.90;;
45392;SDS011;31129;44.810;10.334;2023-07-31T04:09:54;9.70;;;7.88;;
45392;SDS011;31129;44.810;10.334;2023-07-31T04:12:19;9.75;;;7.03;;
45392;SDS011;31129;44.810;10.334;2023-07-31T04:14:45;10.90;;;8.35;;
45392;SDS011;31129;44.810;10.334;2023-07-31T04:17:10;12.23;;;8.40;;
45392;SDS011;31129;44.810;10.334;2023-07-31T04:19:36;11.73;;;8.50;;
45392;SDS011;31129;44.810;10.334;2023-07-31T04:22:01;11.95;;;9.30;;
45392;SDS011;31129;44.810;10.334;2023-07-31T04:24:27;9.93;;;8.93;;
45392;SDS011;31129;44.810;10.334;2023-07-31T04:26:53;11.70;;;9.27;;
45392;SDS011;31129;44.810;10.334;2023-07-31T04:29:19;16.33;;;9.93;;
45392;SDS011;31129;44.810;10.334;2023-07-31T04:31:45;12.13;;;9.85;;
45392;SDS011;31129;44.810;10.334;2023-07-31T04:34:10;13.82;;;8.98;;
45392;SDS011;31129;44.810;10.334;2023-07-31T04:36:37;13.52;;;8.63;;
45392;SDS011;31129;44.810;10.334;2023-07-31T04:39:02;15.15;;;10.77;;
45392;SDS011;31129;44.810;10.334;2023-07-31T04:41:28;17.88;;;9.73;;
45392;SDS011;31129;44.810;10.334;2023-07-31T04:43:53;16.02;;;10.35;;
45392;SDS011;31129;44.810;10.334;2023-07-31T04:46:19;11.95;;;9.77;;
45392;SDS011;31129;44.810;10.334;2023-07-31T04:48:44;16.42;;;10.65;;
45392;SDS011;31129;44.810;10.334;2023-07-31T04:51:10;15.18;;;10.18;;
45392;SDS011;31129;44.810;10.334;2023-07-31T04:53:35;15.32;;;10.85;;
45392;SDS011;31129;44.810;10.334;2023-07-31T04:56:01;17.55;;;11.32;;
45392;SDS011;31129;44.810;10.334;2023-07-31T04:58:27;16.33;;;11.07;;
45392;SDS011;31129;44.810;10.334;2023-07-31T05:00:53;14.90;;;12.50;;
45392;SDS011;31129;44.810;10.334;2023-07-31T05:03:19;16.65;;;11.57;;
45392;SDS011;31129;44.810;10.334;2023-07-31T05:05:44;16.58;;;11.73;;
45392;SDS011;31129;44.810;10.334;2023-07-31T05:08:10;14.07;;;11.35;;
45392;SDS011;31129;44.810;10.334;2023-07-31T05:10:36;15.85;;;12.05;;
45392;SDS011;31129;44.810;10.334;2023-07-31T05:13:01;12.07;;;10.73;;
45392;SDS011;31129;44.810;10.334;2023-07-31T05:15:27;14.48;;;10.05;;
45392;SDS011;31129;44.810;10.334;2023-07-31T05:17:53;13.40;;;8.82;;
45392;SDS011;31129;44.810;10.334;2023-07-31T05:20:19;11.80;;;9.75;;
45392;SDS011;31129;44.810;10.334;2023-07-31T05:22:44;13.50;;;8.75;;
45392;SDS011;31129;44.810;10.334;2023-07-31T05:25:10;11.93;;;8.45;;
45392;SDS011;31129;44.810;10.334;2023-07-31T05:27:35;9.75;;;7.57;;
45392;SDS011;31129;44.810;10.334;2023-07-31T05:30:01;9.32;;;6.97;;
45392;SDS011;31129;44.810;10.334;2023-07-31T05:32:26;6.55;;;5.90;;
45392;SDS011;31129;44.810;10.334;2023-07-31T05:34:52;8.18;;;6.40;;
45392;SDS011;31129;44.810;10.334;2023-07-31T05:37:18;8.10;;;6.28;;
45392;SDS011;31129;44.810;10.334;2023-07-31T05:39:44;9.18;;;6.75;;
45392;SDS011;31129;44.810;10.334;2023-07-31T05:42:09;9.25;;;6.10;;
45392;SDS011;31129;44.810;10.334;2023-07-31T05:44:35;8.55;;;6.47;;
45392;SDS011;31129;44.810;10.334;2023-07-31T05:47:00;8.32;;;5.78;;
45392;SDS011;31129;44.810;10.334;2023-07-31T05:49:26;9.25;;;5.35;;
45392;SDS011;31129;44.810;10.334;2023-07-31T05:51:51;8.52;;;5.60;;
45392;SDS011;31129;44.810;10.334;2023-07-31T05:54:17;7.28;;;5.55;;
45392;SDS011;31129;44.810;10.334;2023-07-31T05:56:43;9.05;;;5.80;;
45392;SDS011;31129;44.810;10.334;2023-07-31T05:59:08;10.68;;;5.47;;
45392;SDS011;31129;44.810;10.334;2023-07-31T06:01:35;10.30;;;6.07;;
45392;SDS011;31129;44.810;10.334;2023-07-31T06:04:00;9.52;;;5.40;;
45392;SDS011;31129;44.810;10.334;2023-07-31T06:06:27;6.45;;;4.82;;
45392;SDS011;31129;44.810;10.334;2023-07-31T06:08:53;10.13;;;5.43;;
45392;SDS011;31129;44.810;10.334;2023-07-31T06:11:19;10.30;;;4.95;;
45392;SDS011;31129;44.810;10.334;2023-07-31T06:13:45;12.27;;;5.60;;
45392;SDS011;31129;44.810;10.334;2023-07-31T06:16:13;14.13;;;4.97;;
45392;SDS011;31129;44.810;10.334;2023-07-31T06:18:38;8.77;;;5.28;;
45392;SDS011;31129;44.810;10.334;2023-07-31T06:21:04;10.32;;;4.70;;
45392;SDS011;31129;44.810;10.334;2023-07-31T06:23:29;9.88;;;5.03;;
45392;SDS011;31129;44.810;10.334;2023-07-31T06:25:55;8.00;;;4.43;;
45392;SDS011;31129;44.810;10.334;2023-07-31T06:28:20;10.18;;;5.30;;
45392;SDS011;31129;44.810;10.334;2023-07-31T06:30:46;12.95;;;5.68;;
45392;SDS011;31129;44.810;10.334;2023-07-31T06:33:12;9.75;;;5.35;;
45392;SDS011;31129;44.810;10.334;2023-07-31T06:35:38;11.38;;;5.35;;
45392;SDS011;31129;44.810;10.334;2023-07-31T06:38:03;14.63;;;5.00;;
45392;SDS011;31129;44.810;10.334;2023-07-31T06:40:29;11.52;;;5.22;;
45392;SDS011;31129;44.810;10.334;2023-07-31T06:42:55;8.82;;;5.72;;
45392;SDS011;31129;44.810;10.334;2023-07-31T06:45:20;11.98;;;5.95;;
45392;SDS011;31129;44.810;10.334;2023-07-31T06:47:47;10.07;;;5.65;;
45392;SDS011;31129;44.810;10.334;2023-07-31T06:50:12;12.43;;;6.55;;
45392;SDS011;31129;44.810;10.334;2023-07-31T06:52:40;6.15;;;5.10;;
45392;SDS011;31129;44.810;10.334;2023-07-31T06:55:19;10.30;;;5.95;;
45392;SDS011;31129;44.810;10.334;2023-07-31T06:57:46;13.25;;;5.90;;
45392;SDS011;31129;44.810;10.334;2023-07-31T07:00:12;10.50;;;5.80;;
45392;SDS011;31129;44.810;10.334;2023-07-31T07:02:38;14.63;;;6.13;;
45392;SDS011;31129;44.810;10.334;2023-07-31T07:05:04;11.57;;;7.07;;
45392;SDS011;31129;44.810;10.334;2023-07-31T07:07:29;12.05;;;5.85;;
45392;SDS011;31129;44.810;10.334;2023-07-31T07:09:55;10.63;;;5.90;;
45392;SDS011;31129;44.810;10.334;2023-07-31T07:12:20;9.48;;;5.25;;
45392;SDS011;31129;44.810;10.334;2023-07-31T07:14:46;10.20;;;6.65;;
45392;SDS011;31129;44.810;10.334;2023-07-31T07:17:13;12.50;;;6.03;;
45392;SDS011;31129;44.810;10.334;2023-07-31T07:19:41;11.55;;;6.10;;
45392;SDS011;31129;44.810;10.334;2023-07-31T07:22:07;8.55;;;6.05;;
45392;SDS011;31129;44.810;10.334;2023-07-31T07:24:33;8.63;;;6.50;;
45392;SDS011;31129;44.810;10.334;2023-07-31T07:26:58;13.02;;;6.00;;
45392;SDS011;31129;44.810;10.334;2023-07-31T07:29:24;11.57;;;5.25;;
45392;SDS011;31129;44.810;10.334;2023-07-31T07:31:50;11.18;;;5.15;;
45392;SDS011;31129;44.810;10.334;2023-07-31T07:34:15;7.85;;;6.70;;
45392;SDS011;31129;44.810;10.334;2023-07-31T07:36:41;9.73;;;6.88;;
45392;SDS011;31129;44.810;10.334;2023-07-31T07:39:06;9.88;;;6.88;;
45392;SDS011;31129;44.810;10.334;2023-07-31T07:41:33;14.25;;;8.68;;
45392;SDS011;31129;44.810;10.334;2023-07-31T07:43:59;14.23;;;10.73;;
45392;SDS011;31129;44.810;10.334;2023-07-31T07:46:24;11.27;;;8.35;;
45392;SDS011;31129;44.810;10.334;2023-07-31T07:48:50;8.23;;;6.32;;
45392;SDS011;31129;44.810;10.334;2023-07-31T07:51:16;8.00;;;5.70;;
45392;SDS011;31129;44.810;10.334;2023-07-31T07:53:41;10.63;;;7.65;;
45392;SDS011;31129;44.810;10.334;2023-07-31T07:56:07;15.43;;;7.90;;
45392;SDS011;31129;44.810;10.334;2023-07-31T07:58:32;10.57;;;8.32;;
45392;SDS011;31129;44.810;10.334;2023-07-31T08:00:58;11.82;;;9.00;;
45392;SDS011;31129;44.810;10.334;2023-07-31T08:03:42;11.30;;;9.93;;
45392;SDS011;31129;44.810;10.334;2023-07-31T08:06:08;12.70;;;8.85;;
45392;SDS011;31129;44.810;10.334;2023-07-31T08:08:34;10.00;;;9.00;;
45392;SDS011;31129;44.810;10.334;2023-07-31T08:11:01;10.68;;;9.40;;
45392;SDS011;31129;44.810;10.334;2023-07-31T08:13:26;15.32;;;9.05;;
45392;SDS011;31129;44.810;10.334;2023-07-31T08:15:52;15.10;;;8.73;;
45392;SDS011;31129;44.810;10.334;2023-07-31T08:18:18;16.48;;;8.45;;
45392;SDS011;31129;44.810;10.334;2023-07-31T08:20:44;9.90;;;8.90;;
45392;SDS011;31129;44.810;10.334;2023-07-31T08:23:09;11.75;;;8.93;;
45392;SDS011;31129;44.810;10.334;2023-07-31T08:25:35;9.75;;;8.75;;
45392;SDS011;31129;44.810;10.334;2023-07-31T08:28:02;8.02;;;6.90;;
45392;SDS011;31129;44.810;10.334;2023-07-31T08:30:28;8.73;;;5.70;;
45392;SDS011;31129;44.810;10.334;2023-07-31T08:32:53;9.73;;;5.57;;
45392;SDS011;31129;44.810;10.334;2023-07-31T08:35:19;7.07;;;4.35;;
45392;SDS011;31129;44.810;10.334;2023-07-31T08:37:44;5.75;;;3.03;;
45392;SDS011;31129;44.810;10.334;2023-07-31T08:40:10;3.70;;;3.10;;
45392;SDS011;31129;44.810;10.334;2023-07-31T08:42:45;3.30;;;2.22;;
45392;SDS011;31129;44.810;10.334;2023-07-31T08:45:16;3.00;;;2.30;;
45392;SDS011;31129;44.810;10.334;2023-07-31T08:47:44;4.85;;;1.85;;
45392;SDS011;31129;44.810;10.334;2023-07-31T08:50:15;5.80;;;2.00;;
45392;SDS011;31129;44.810;10.334;2023-07-31T08:52:41;2.28;;;2.05;;
45392;SDS011;31129;44.810;10.334;2023-07-31T08:55:07;5.22;;;2.42;;
45392;SDS011;31129;44.810;10.334;2023-07-31T08:57:34;6.78;;;2.40;;
45392;SDS011;31129;44.810;10.334;2023-07-31T09:00:03;4.03;;;2.00;;
45392;SDS011;31129;44.810;10.334;2023-07-31T09:05:13;4.65;;;2.78;;
45392;SDS011;31129;44.810;10.334;2023-07-31T09:07:40;4.50;;;2.10;;
45392;SDS011;31129;44.810;10.334;2023-07-31T09:10:06;9.63;;;3.28;;
45392;SDS011;31129;44.810;10.334;2023-07-31T09:12:32;2.40;;;1.80;;
45392;SDS011;31129;44.810;10.334;2023-07-31T09:14:58;3.63;;;2.00;;
45392;SDS011;31129;44.810;10.334;2023-07-31T09:17:33;5.78;;;2.92;;
45392;SDS011;31129;44.810;10.334;2023-07-31T09:20:17;4.30;;;3.40;;
45392;SDS011;31129;44.810;10.334;2023-07-31T09:22:45;4.63;;;3.83;;
45392;SDS011;31129;44.810;10.334;2023-07-31T09:25:24;6.47;;;4.97;;
45392;SDS011;31129;44.810;10.334;2023-07-31T09:30:23;5.32;;;4.32;;
45392;SDS011;31129;44.810;10.334;2023-07-31T09:33:05;5.25;;;4.10;;
45392;SDS011;31129;44.810;10.334;2023-07-31T09:35:32;5.93;;;4.60;;
45392;SDS011;31129;44.810;10.334;2023-07-31T09:40:33;8.10;;;4.88;;
45392;SDS011;31129;44.810;10.334;2023-07-31T09:43:04;7.15;;;4.70;;
45392;SDS011;31129;44.810;10.334;2023-07-31T09:45:41;7.60;;;5.47;;
45392;SDS011;31129;44.810;10.334;2023-07-31T09:48:08;6.60;;;5.40;;
45392;SDS011;31129;44.810;10.334;2023-07-31T09:50:37;5.95;;;5.18;;
45392;SDS011;31129;44.810;10.334;2023-07-31T09:55:30;5.95;;;4.80;;
45392;SDS011;31129;44.810;10.334;2023-07-31T09:57:59;9.68;;;5.50;;
45392;SDS011;31129;44.810;10.334;2023-07-31T10:00:30;6.60;;;4.82;;
45392;SDS011;31129;44.810;10.334;2023-07-31T10:03:00;7.25;;;5.35;;
45392;SDS011;31129;44.810;10.334;2023-07-31T10:05:33;6.95;;;4.32;;
45392;SDS011;31129;44.810;10.334;2023-07-31T10:08:01;4.30;;;3.53;;
45392;SDS011;31129;44.810;10.334;2023-07-31T10:10:27;5.18;;;3.45;;
45392;SDS011;31129;44.810;10.334;2023-07-31T10:12:54;7.10;;;4.10;;
45392;SDS011;31129;44.810;10.334;2023-07-31T10:15:21;6.32;;;3.80;;
45392;SDS011;31129;44.810;10.334;2023-07-31T10:17:47;5.35;;;3.78;;
45392;SDS011;31129;44.810;10.334;2023-07-31T10:20:13;5.18;;;4.60;;
45392;SDS011;31129;44.810;10.334;2023-07-31T10:22:41;4.57;;;3.75;;
45392;SDS011;31129;44.810;10.334;2023-07-31T10:25:08;6.22;;;3.72;;
45392;SDS011;31129;44.810;10.334;2023-07-31T10:27:35;4.67;;;4.27;;
45392;SDS011;31129;44.810;10.334;2023-07-31T10:30:03;4.60;;;4.05;;
45392;SDS011;31129;44.810;10.334;2023-07-31T10:32:50;7.07;;;3.55;;
45392;SDS011;31129;44.810;10.334;2023-07-31T10:35:17;7.60;;;4.40;;
45392;SDS011;31129;44.810;10.334;2023-07-31T10:37:43;7.40;;;4.28;;
45392;SDS011;31129;44.810;10.334;2023-07-31T10:40:13;7.55;;;3.83;;
45392;SDS011;31129;44.810;10.334;2023-07-31T10:42:48;4.65;;;3.17;;
45392;SDS011;31129;44.810;10.334;2023-07-31T10:45:31;7.03;;;3.47;;
45392;SDS011;31129;44.810;10.334;2023-07-31T10:48:05;3.45;;;3.13;;
45392;SDS011;31129;44.810;10.334;2023-07-31T10:50:36;4.43;;;3.15;;
45392;SDS011;31129;44.810;10.334;2023-07-31T10:53:03;5.10;;;2.92;;
45392;SDS011;31129;44.810;10.334;2023-07-31T10:58:04;3.95;;;2.63;;
45392;SDS011;31129;44.810;10.334;2023-07-31T11:00:40;8.02;;;2.83;;
45392;SDS011;31129;44.810;10.334;2023-07-31T11:03:12;4.20;;;3.10;;
45392;SDS011;31129;44.810;10.334;2023-07-31T11:05:43;5.95;;;3.15;;
45392;SDS011;31129;44.810;10.334;2023-07-31T11:08:28;4.25;;;3.72;;
45392;SDS011;31129;44.810;10.334;2023-07-31T11:13:26;6.78;;;3.65;;
45392;SDS011;31129;44.810;10.334;2023-07-31T11:15:55;4.20;;;3.17;;
45392;SDS011;31129;44.810;10.334;2023-07-31T11:18:21;7.47;;;3.10;;
45392;SDS011;31129;44.810;10.334;2023-07-31T11:20:47;4.95;;;3.20;;
45392;SDS011;31129;44.810;10.334;2023-07-31T11:23:12;4.25;;;2.80;;
45392;SDS011;31129;44.810;10.334;2023-07-31T11:25:40;5.75;;;3.33;;
45392;SDS011;31129;44.810;10.334;2023-07-31T11:28:09;6.77;;;2.80;;
45392;SDS011;31129;44.810;10.334;2023-07-31T11:30:36;7.18;;;3.35;;
45392;SDS011;31129;44.810;10.334;2023-07-31T11:33:03;3.17;;;2.88;;
45392;SDS011;31129;44.810;10.334;2023-07-31T11:35:34;3.60;;;3.03;;
45392;SDS011;31129;44.810;10.334;2023-07-31T11:38:01;5.35;;;3.20;;
45392;SDS011;31129;44.810;10.334;2023-07-31T11:40:28;3.38;;;3.08;;
45392;SDS011;31129;44.810;10.334;2023-07-31T11:42:57;7.57;;;3.47;;
45392;SDS011;31129;44.810;10.334;2023-07-31T11:45:26;6.15;;;3.38;;
45392;SDS011;31129;44.810;10.334;2023-07-31T11:47:56;6.40;;;3.58;;
45392;SDS011;31129;44.810;10.334;2023-07-31T11:50:22;5.28;;;3.38;;
45392;SDS011;31129;44.810;10.334;2023-07-31T11:52:52;8.32;;;3.22;;
45392;SDS011;31129;44.810;10.334;2023-07-31T11:55:21;4.05;;;3.20;;
45392;SDS011;31129;44.810;10.334;2023-07-31T11:57:47;4.40;;;3.20;;
45392;SDS011;31129;44.810;10.334;2023-07-31T12:00:16;4.67;;;3.23;;
45392;SDS011;31129;44.810;10.334;2023-07-31T12:02:42;4.68;;;3.00;;
45392;SDS011;31129;44.810;10.334;2023-07-31T12:05:12;3.65;;;2.70;;
45392;SDS011;31129;44.810;10.334;2023-07-31T12:10:10;5.38;;;3.00;;
45392;SDS011;31129;44.810;10.334;2023-07-31T12:12:36;4.60;;;2.70;;
45392;SDS011;31129;44.810;10.334;2023-07-31T12:15:02;3.00;;;2.70;;
45392;SDS011;31129;44.810;10.334;2023-07-31T12:17:27;5.28;;;2.97;;
45392;SDS011;31129;44.810;10.334;2023-07-31T12:19:53;4.38;;;2.58;;
45392;SDS011;31129;44.810;10.334;2023-07-31T12:22:19;4.10;;;2.55;;
45392;SDS011;31129;44.810;10.334;2023-07-31T12:24:46;3.63;;;2.28;;
45392;SDS011;31129;44.810;10.334;2023-07-31T12:27:12;4.38;;;2.85;;
45392;SDS011;31129;44.810;10.334;2023-07-31T12:29:44;3.05;;;2.17;;
45392;SDS011;31129;44.810;10.334;2023-07-31T12:32:22;3.10;;;2.70;;
45392;SDS011;31129;44.810;10.334;2023-07-31T12:34:50;6.63;;;3.10;;
45392;SDS011;31129;44.810;10.334;2023-07-31T12:37:15;6.20;;;2.88;;
45392;SDS011;31129;44.810;10.334;2023-07-31T12:39:41;4.20;;;2.97;;
45392;SDS011;31129;44.810;10.334;2023-07-31T12:42:07;5.35;;;2.90;;
45392;SDS011;31129;44.810;10.334;2023-07-31T12:44:32;3.45;;;2.60;;
45392;SDS011;31129;44.810;10.334;2023-07-31T12:46:58;3.25;;;2.47;;
45392;SDS011;31129;44.810;10.334;2023-07-31T12:49:24;6.60;;;2.47;;
45392;SDS011;31129;44.810;10.334;2023-07-31T12:51:50;5.57;;;2.63;;
45392;SDS011;31129;44.810;10.334;2023-07-31T12:54:15;3.30;;;2.40;;
45392;SDS011;31129;44.810;10.334;2023-07-31T12:56:41;4.18;;;2.58;;
45392;SDS011;31129;44.810;10.334;2023-07-31T12:59:06;4.65;;;2.75;;
45392;SDS011;31129;44.810;10.334;2023-07-31T13:01:32;2.53;;;1.77;;
45392;SDS011;31129;44.810;10.334;2023-07-31T13:03:57;2.90;;;2.20;;
45392;SDS011;31129;44.810;10.334;2023-07-31T13:06:24;9.63;;;3.30;;
45392;SDS011;31129;44.810;10.334;2023-07-31T13:08:51;5.07;;;2.67;;
45392;SDS011;31129;44.810;10.334;2023-07-31T13:11:16;7.50;;;2.58;;
45392;SDS011;31129;44.810;10.334;2023-07-31T13:13:42;3.28;;;2.28;;
45392;SDS011;31129;44.810;10.334;2023-07-31T13:16:07;3.10;;;2.17;;
45392;SDS011;31129;44.810;10.334;2023-07-31T13:18:33;3.50;;;2.30;;
45392;SDS011;31129;44.810;10.334;2023-07-31T13:20:58;6.78;;;2.40;;
45392;SDS011;31129;44.810;10.334;2023-07-31T13:23:24;4.78;;;2.70;;
45392;SDS011;31129;44.810;10.334;2023-07-31T13:25:49;2.50;;;2.22;;
45392;SDS011;31129;44.810;10.334;2023-07-31T13:28:15;4.75;;;2.20;;
45392;SDS011;31129;44.810;10.334;2023-07-31T13:30:40;5.75;;;2.60;;
45392;SDS011;31129;44.810;10.334;2023-07-31T13:33:06;4.40;;;2.75;;
45392;SDS011;31129;44.810;10.334;2023-07-31T13:35:31;5.00;;;2.30;;
45392;SDS011;31129;44.810;10.334;2023-07-31T13:37:57;5.38;;;2.90;;
45392;SDS011;31129;44.810;10.334;2023-07-31T13:40:22;4.65;;;2.60;;
45392;SDS011;31129;44.810;10.334;2023-07-31T13:42:48;7.35;;;3.03;;
45392;SDS011;31129;44.810;10.334;2023-07-31T13:45:14;7.05;;;2.70;;
45392;SDS011;31129;44.810;10.334;2023-07-31T13:47:39;4.88;;;2.55;;
45392;SDS011;31129;44.810;10.334;2023-07-31T13:50:05;5.35;;;2.97;;
45392;SDS011;31129;44.810;10.334;2023-07-31T13:52:31;4.40;;;2.85;;
45392;SDS011;31129;44.810;10.334;2023-07-31T13:54:56;3.65;;;2.50;;
45392;SDS011;31129;44.810;10.334;2023-07-31T13:57:22;4.78;;;2.50;;
45392;SDS011;31129;44.810;10.334;2023-07-31T13:59:48;3.93;;;2.50;;
45392;SDS011;31129;44.810;10.334;2023-07-31T14:02:14;10.75;;;2.67;;
45392;SDS011;31129;44.810;10.334;2023-07-31T14:04:40;3.13;;;2.70;;
45392;SDS011;31129;44.810;10.334;2023-07-31T14:07:05;7.55;;;2.55;;
45392;SDS011;31129;44.810;10.334;2023-07-31T14:09:31;5.80;;;2.55;;
45392;SDS011;31129;44.810;10.334;2023-07-31T14:11:57;5.63;;;3.35;;
45392;SDS011;31129;44.810;10.334;2023-07-31T14:14:22;9.02;;;3.05;;
45392;SDS011;31129;44.810;10.334;2023-07-31T14:16:48;6.35;;;2.55;;
45392;SDS011;31129;44.810;10.334;2023-07-31T14:19:13;4.88;;;2.78;;
45392;SDS011;31129;44.810;10.334;2023-07-31T14:21:39;4.03;;;2.42;;
45392;SDS011;31129;44.810;10.334;2023-07-31T14:24:04;4.95;;;2.97;;
45392;SDS011;31129;44.810;10.334;2023-07-31T14:26:30;4.93;;;2.77;;
45392;SDS011;31129;44.810;10.334;2023-07-31T14:28:55;6.15;;;2.47;;
45392;SDS011;31129;44.810;10.334;2023-07-31T14:31:21;8.20;;;2.80;;
45392;SDS011;31129;44.810;10.334;2023-07-31T14:33:46;4.90;;;2.80;;
45392;SDS011;31129;44.810;10.334;2023-07-31T14:36:12;6.72;;;2.90;;
45392;SDS011;31129;44.810;10.334;2023-07-31T14:38:37;7.03;;;2.80;;
45392;SDS011;31129;44.810;10.334;2023-07-31T14:41:03;4.77;;;2.67;;
45392;SDS011;31129;44.810;10.334;2023-07-31T14:43:28;5.47;;;2.30;;
45392;SDS011;31129;44.810;10.334;2023-07-31T14:45:54;2.77;;;2.57;;
45392;SDS011;31129;44.810;10.334;2023-07-31T14:48:23;5.20;;;2.90;;
45392;SDS011;31129;44.810;10.334;2023-07-31T14:50:48;3.67;;;2.60;;
45392;SDS011;31129;44.810;10.334;2023-07-31T14:53:13;5.37;;;3.10;;
45392;SDS011;31129;44.810;10.334;2023-07-31T14:55:39;8.33;;;2.40;;
45392;SDS011;31129;44.810;10.334;2023-07-31T14:58:04;8.57;;;2.30;;